Time;durP1;ratioP1;P1;durP2;ratioP2;P2;SDS_P1;SDS_P2;PMS_P1;PMS_P2;Temp;Humidity;BMP_temperature;BMP_pressure;BME280_temperature;BME280_humidity;BME280_pressure;Samples;Min_cycle;Max_cycle;Signal;HPM_P1;HPM_P2
2022/06/27 00:01:22;;;;;;;;;4.75;4.25;;;;;18.52;57.94;100621.75;5053663;28;46284;-65
2022/06/27 00:03:47;;;;;;;;;6.50;5.00;;;;;18.46;58.03;100611.56;5055235;28;45347;-64
2022/06/27 00:06:13;;;;;;;;;4.00;3.00;;;;;18.43;57.87;100606.44;5055703;28;45361;-65
2022/06/27 00:08:39;;;;;;;;;3.50;3.25;;;;;18.35;58.30;100598.19;5055426;28;45601;-66
2022/06/27 00:11:04;;;;;;;;;6.00;5.00;;;;;18.33;58.24;100602.75;5054672;28;46731;-65
2022/06/27 00:13:30;;;;;;;;;4.00;4.00;;;;;18.29;58.48;100602.13;5055160;28;45434;-66
2022/06/27 00:15:55;;;;;;;;;5.00;5.00;;;;;18.27;58.62;100609.38;5055083;28;45364;-64
2022/06/27 00:18:21;;;;;;;;;6.75;6.75;;;;;18.24;58.45;100612.25;5054793;28;45422;-64
2022/06/27 00:20:46;;;;;;;;;6.00;5.00;;;;;18.22;58.74;100614.19;5054478;28;45430;-65
2022/06/27 00:23:11;;;;;;;;;5.75;5.75;;;;;18.23;58.81;100622.06;5055097;28;45280;-65
2022/06/27 00:25:37;;;;;;;;;7.00;5.00;;;;;18.19;59.00;100620.59;5055036;28;45320;-65
2022/06/27 00:28:02;;;;;;;;;4.50;3.00;;;;;18.19;58.86;100611.75;5055105;28;45485;-65
2022/06/27 00:30:28;;;;;;;;;4.00;3.00;;;;;18.17;58.58;100617.19;5054665;28;46641;-65
2022/06/27 00:32:54;;;;;;;;;5.00;4.00;;;;;18.12;58.01;100606.03;5054760;28;45254;-66
2022/06/27 00:35:19;;;;;;;;;5.00;3.50;;;;;18.10;58.14;100603.44;5054792;28;45200;-64
2022/06/27 00:37:45;;;;;;;;;2.50;2.50;;;;;18.04;57.97;100595.06;5055381;28;45578;-65
2022/06/27 00:40:11;;;;;;;;;5.00;5.00;;;;;18.04;58.11;100589.75;5055082;28;45515;-66
2022/06/27 00:42:37;;;;;;;;;4.25;4.25;;;;;18.08;57.79;100605.38;5053721;28;45348;-65
2022/06/27 00:45:03;;;;;;;;;4.00;4.00;;;;;18.07;58.15;100602.84;5055236;28;45338;-66
2022/06/27 00:47:28;;;;;;;;;4.75;3.00;;;;;18.03;57.93;100604.03;5055080;28;45394;-65
2022/06/27 00:49:54;;;;;;;;;2.25;2.25;;;;;18.02;57.97;100595.16;5053149;28;47522;-64
2022/06/27 00:52:19;;;;;;;;;4.00;4.00;;;;;18.02;57.86;100594.31;5054668;28;45422;-64
2022/06/27 00:54:46;;;;;;;;;4.00;4.00;;;;;18.02;57.89;100595.16;5054763;28;45407;-64
2022/06/27 00:57:13;;;;;;;;;5.75;4.25;;;;;18.04;58.14;100603.91;5054930;28;45393;-66
2022/06/27 00:59:39;;;;;;;;;5.00;3.00;;;;;18.04;57.79;100601.22;5054242;28;45436;-65
2022/06/27 01:02:06;;;;;;;;;7.50;4.50;;;;;18.05;57.89;100610.09;5054501;28;45236;-65
2022/06/27 01:04:31;;;;;;;;;6.50;5.00;;;;;18.04;58.02;100622.53;5054537;28;45383;-65
2022/06/27 01:06:58;;;;;;;;;5.75;5.75;;;;;18.00;57.95;100613.06;5054411;28;45474;-64
2022/06/27 01:09:24;;;;;;;;;5.50;5.50;;;;;18.03;57.96;100617.31;5054430;28;46097;-65
2022/06/27 01:11:51;;;;;;;;;7.00;6.00;;;;;18.02;58.14;100615.59;5054153;28;45508;-66
2022/06/27 01:14:18;;;;;;;;;7.25;5.50;;;;;18.00;58.20;100618.38;5054787;28;45358;-64
2022/06/27 01:16:44;;;;;;;;;8.00;6.75;;;;;17.97;58.28;100613.25;5053295;28;45264;-66
2022/06/27 01:19:12;;;;;;;;;5.00;5.00;;;;;17.94;58.13;100602.81;5054126;28;46074;-65
2022/06/27 01:21:50;;;;;;;;;5.00;5.00;;;;;18.01;58.37;100611.22;5054104;28;45370;-64
2022/06/27 01:24:16;;;;;;;;;5.75;5.75;;;;;18.00;58.09;100602.41;5054680;28;45346;-65
2022/06/27 01:26:43;;;;;;;;;7.75;6.50;;;;;18.00;58.11;100621.03;5054936;28;45571;-65
2022/06/27 01:29:09;;;;;;;;;4.00;4.00;;;;;17.98;57.87;100630.03;5054409;28;46184;-66
2022/06/27 01:31:35;;;;;;;;;3.50;1.75;;;;;17.93;57.76;100617.91;5057063;28;45223;-63
2022/06/27 01:34:01;;;;;;;;;3.00;3.00;;;;;17.93;57.95;100633.88;5090136;27;45279;-64
2022/06/27 01:36:42;;;;;;;;;5.25;3.75;;;;;17.96;57.99;100633.66;5057470;28;45371;-65
2022/06/27 01:39:18;;;;;;;;;0.00;0.00;;;;;17.93;57.95;100631.22;5057783;28;45299;-66
2022/06/27 01:41:46;;;;;;;;;4.25;4.25;;;;;17.99;57.93;100645.06;5057364;28;45247;-63
2022/06/27 01:44:13;;;;;;;;;4.75;3.00;;;;;17.97;57.99;100639.84;5057544;28;45334;-66
2022/06/27 01:46:49;;;;;;;;;3.00;3.00;;;;;17.99;57.84;100637.94;5057451;28;45364;-66
2022/06/27 01:49:16;;;;;;;;;2.00;2.00;;;;;18.00;57.96;100636.13;5057583;28;45440;-65
2022/06/27 01:51:44;;;;;;;;;2.00;2.00;;;;;18.01;57.94;100627.19;5057332;28;45290;-64
2022/06/27 01:54:12;;;;;;;;;3.75;3.75;;;;;18.00;57.99;100625.47;5057444;28;45203;-64
2022/06/27 01:56:38;;;;;;;;;4.00;4.00;;;;;18.01;57.99;100619.22;5056062;28;45308;-64
2022/06/27 01:59:04;;;;;;;;;4.75;3.00;;;;;18.04;57.92;100614.53;5056831;28;46477;-64
2022/06/27 02:01:30;;;;;;;;;6.00;4.25;;;;;18.11;57.80;100620.28;5056871;28;45352;-65
2022/06/27 02:03:57;;;;;;;;;2.75;2.75;;;;;18.13;57.77;100607.72;5057268;28;45313;-64
2022/06/27 02:06:23;;;;;;;;;5.50;3.25;;;;;18.16;57.55;100610.16;5057417;28;45255;-64
2022/06/27 02:08:52;;;;;;;;;4.00;2.75;;;;;18.21;57.53;100616.00;5056992;28;46487;-64
2022/06/27 02:11:18;;;;;;;;;4.00;3.00;;;;;18.24;57.59;100615.78;5056979;28;45358;-64
2022/06/27 02:13:44;;;;;;;;;2.75;2.75;;;;;18.25;57.70;100605.97;5056969;28;45401;-64
2022/06/27 02:16:14;;;;;;;;;3.00;3.00;;;;;18.29;57.58;100604.78;5057069;28;45303;-64
2022/06/27 02:18:41;;;;;;;;;3.00;3.00;;;;;18.26;57.37;100594.34;5056699;28;45506;-66
2022/06/27 02:21:09;;;;;;;;;6.00;3.00;;;;;18.32;57.28;100604.56;5056546;28;45458;-65
2022/06/27 02:23:35;;;;;;;;;4.00;2.75;;;;;18.28;57.67;100595.09;5056863;28;45264;-65
2022/06/27 02:26:01;;;;;;;;;2.00;2.00;;;;;18.33;57.49;100598.28;5056894;28;45443;-64
2022/06/27 02:28:28;;;;;;;;;6.00;3.00;;;;;18.32;57.16;100601.91;5054960;28;47927;-64
2022/06/27 02:30:55;;;;;;;;;3.75;3.75;;;;;18.37;57.09;100607.75;5056649;28;45278;-64
2022/06/27 02:33:20;;;;;;;;;4.00;4.00;;;;;18.38;57.14;100604.13;5056958;28;45302;-65
2022/06/27 02:35:49;;;;;;;;;3.00;3.00;;;;;18.42;56.93;100610.09;5056652;28;45169;-64
2022/06/27 02:38:17;;;;;;;;;6.75;4.00;;;;;18.48;57.03;100614.09;5056516;28;45408;-65
2022/06/27 02:40:44;;;;;;;;;3.75;3.75;;;;;18.48;56.84;100606.97;5056608;28;45270;-65
2022/06/27 02:43:12;;;;;;;;;5.00;3.00;;;;;18.48;56.55;100609.63;5055970;28;45398;-64
2022/06/27 02:45:38;;;;;;;;;5.00;3.00;;;;;18.49;56.65;100618.44;5056735;28;45502;-66
2022/06/27 02:48:05;;;;;;;;;3.50;3.50;;;;;18.52;56.84;100619.09;5056486;28;46212;-65
2022/06/27 02:50:32;;;;;;;;;3.25;3.25;;;;;18.52;56.79;100619.09;5056462;28;45572;-65
2022/06/27 02:53:02;;;;;;;;;5.00;3.00;;;;;18.53;56.68;100627.91;5056467;28;45324;-65
2022/06/27 02:55:34;;;;;;;;;3.25;3.25;;;;;18.56;56.65;100634.84;5055042;28;45489;-65
2022/06/27 02:58:02;;;;;;;;;4.00;2.25;;;;;18.56;56.47;100632.19;5056108;28;46187;-65
2022/06/27 03:00:28;;;;;;;;;3.75;3.75;;;;;18.59;56.15;100630.16;5056115;28;45397;-65
2022/06/27 03:02:56;;;;;;;;;4.25;4.25;;;;;18.62;56.27;100634.41;5056582;28;45310;-65
2022/06/27 03:05:22;;;;;;;;;3.00;3.00;;;;;18.63;55.80;100633.44;5056716;28;45299;-65
2022/06/27 03:07:47;;;;;;;;;3.75;3.75;;;;;18.61;55.72;100624.72;5055672;28;45366;-67
2022/06/27 03:10:13;;;;;;;;;5.00;3.75;;;;;18.59;56.02;100622.16;5055691;28;45449;-64
2022/06/27 03:12:40;;;;;;;;;2.25;2.25;;;;;18.64;55.71;100620.03;5056082;28;45273;-65
2022/06/27 03:15:06;;;;;;;;;4.50;4.00;;;;;18.62;55.57;100611.28;5056012;28;45433;-63
2022/06/27 03:17:31;;;;;;;;;4.25;4.25;;;;;18.66;55.80;100619.88;5055529;28;46471;-65
2022/06/27 03:19:57;;;;;;;;;3.00;3.00;;;;;18.67;55.34;100600.28;5055945;28;45321;-65
2022/06/27 03:22:22;;;;;;;;;4.00;4.00;;;;;18.66;55.49;100609.22;5056328;28;45348;-65
2022/06/27 03:24:48;;;;;;;;;2.75;1.25;;;;;18.65;55.34;100608.41;5056306;28;45388;-65
2022/06/27 03:27:13;;;;;;;;;4.00;4.00;;;;;18.64;55.86;100603.16;5056062;28;46366;-67
2022/06/27 03:29:38;;;;;;;;;5.25;3.00;;;;;18.66;55.43;100602.09;5055741;28;45334;-65
2022/06/27 03:32:04;;;;;;;;;5.25;4.00;;;;;18.62;55.59;100591.78;5056009;28;45329;-65
2022/06/27 03:34:30;;;;;;;;;4.00;3.00;;;;;18.62;55.57;100589.13;5055916;28;45372;-65
2022/06/27 03:36:55;;;;;;;;;4.00;4.00;;;;;18.48;55.36;100572.34;5055722;28;45438;-65
2022/06/27 03:39:21;;;;;;;;;6.00;4.25;;;;;18.61;55.38;100595.41;5059333;28;45354;-65
2022/06/27 03:41:47;;;;;;;;;2.75;2.75;;;;;18.63;55.29;100594.34;5098619;27;45219;-65
2022/06/27 03:44:12;;;;;;;;;3.50;3.50;;;;;18.64;55.38;100584.53;5096156;27;45286;-64
2022/06/27 03:46:38;;;;;;;;;5.50;3.25;;;;;18.61;55.63;100584.75;5080669;27;45665;-66
2022/06/27 03:51:48;;;;;;;;;4.50;4.50;;;;;18.59;55.83;100606.19;5075855;28;45306;-64
2022/06/27 03:54:14;;;;;;;;;4.00;4.00;;;;;18.58;56.10;100611.63;5073878;28;45298;-66
2022/06/27 03:56:39;;;;;;;;;4.00;4.00;;;;;18.57;56.09;100613.44;5074778;28;45459;-64
2022/06/27 03:59:05;;;;;;;;;4.00;3.75;;;;;18.56;55.95;100605.56;5074554;27;45436;-64
2022/06/27 04:01:30;;;;;;;;;6.00;6.00;;;;;18.59;56.24;100606.19;5075622;27;45210;-63
2022/06/27 04:03:56;;;;;;;;;4.00;4.00;;;;;18.56;56.73;100595.75;5076077;28;45247;-64
2022/06/27 04:06:21;;;;;;;;;5.25;5.00;;;;;18.59;56.67;100610.66;5074955;27;46538;-64
2022/06/27 04:08:47;;;;;;;;;3.75;3.75;;;;;18.58;56.67;100632.94;5074936;27;45373;-65
2022/06/27 04:11:12;;;;;;;;;5.00;5.00;;;;;18.60;57.03;100615.00;5074839;27;45709;-64
2022/06/27 04:13:37;;;;;;;;;4.25;4.25;;;;;18.56;57.29;100611.75;5075859;27;45305;-64
2022/06/27 04:16:03;;;;;;;;;9.50;9.25;;;;;18.58;57.20;100635.59;5074492;27;45398;-65
2022/06/27 04:18:28;;;;;;;;;6.25;4.50;;;;;18.56;57.56;100640.19;5080548;27;45412;-64
2022/06/27 04:20:54;;;;;;;;;5.00;5.00;;;;;18.52;57.61;100629.75;5095964;27;45995;-65
2022/06/27 04:23:19;;;;;;;;;4.75;4.75;;;;;18.53;57.49;100639.44;5082367;27;45543;-64
2022/06/27 04:25:44;;;;;;;;;8.75;7.50;;;;;18.56;57.60;100641.03;5090730;27;47478;-65
2022/06/27 04:28:10;;;;;;;;;7.25;3.00;;;;;18.55;57.85;100644.63;5069709;27;45416;-65
2022/06/27 04:30:35;;;;;;;;;5.50;5.25;;;;;18.56;57.78;100640.19;5053134;28;45556;-66
2022/06/27 04:33:02;;;;;;;;;5.75;4.25;;;;;18.61;57.60;100660.19;5054944;28;45489;-65
2022/06/27 04:35:27;;;;;;;;;5.50;4.50;;;;;18.61;57.56;100659.34;5066113;28;46994;-65
2022/06/27 04:37:53;;;;;;;;;15.25;12.00;;;;;18.63;57.78;100662.75;5074971;28;45195;-65
2022/06/27 04:40:20;;;;;;;;;8.25;6.50;;;;;18.65;57.51;100667.00;5075129;27;45294;-65
2022/06/27 04:42:48;;;;;;;;;3.50;3.50;;;;;18.64;57.70;100678.63;5075201;27;45585;-64
2022/06/27 04:45:14;;;;;;;;;5.50;4.25;;;;;18.66;57.52;100697.16;5074661;27;46210;-66
2022/06/27 04:47:41;;;;;;;;;4.50;3.50;;;;;18.64;57.51;100688.41;5090105;27;46141;-66
2022/06/27 04:50:09;;;;;;;;;5.75;4.00;;;;;18.68;57.50;100687.22;5073312;28;45362;-65
2022/06/27 04:52:38;;;;;;;;;5.00;3.25;;;;;18.65;57.64;100666.16;5074619;27;45448;-64
2022/06/27 04:55:07;;;;;;;;;4.50;3.00;;;;;18.67;57.81;100669.53;5072956;28;48036;-65
2022/06/27 04:57:34;;;;;;;;;4.00;4.00;;;;;18.70;57.50;100656.00;5073852;28;45212;-65
2022/06/27 05:00:00;;;;;;;;;2.25;2.25;;;;;18.70;57.85;100653.34;5074870;27;45321;-66
2022/06/27 05:02:25;;;;;;;;;3.00;3.00;;;;;18.72;57.78;100655.91;5074659;27;45533;-64
2022/06/27 05:04:50;;;;;;;;;5.50;3.75;;;;;18.74;58.04;100646.81;5074093;28;46480;-66
2022/06/27 05:07:16;;;;;;;;;7.75;6.25;;;;;18.78;57.71;100642.13;5078202;28;45170;-65
2022/06/27 05:09:41;;;;;;;;;6.75;5.50;;;;;18.80;57.64;100629.53;5077783;28;45460;-65
2022/06/27 05:12:07;;;;;;;;;4.00;4.00;;;;;18.83;57.56;100623.97;5077557;27;45464;-66
2022/06/27 05:14:32;;;;;;;;;4.50;4.50;;;;;18.80;57.41;100622.38;5077606;27;46335;-65
2022/06/27 05:16:58;;;;;;;;;6.25;6.25;;;;;18.90;57.86;100653.66;5077561;28;45267;-65
2022/06/27 05:19:23;;;;;;;;;4.25;4.00;;;;;18.90;57.87;100653.66;5077210;28;45490;-66
2022/06/27 05:21:49;;;;;;;;;7.75;6.75;;;;;18.91;57.71;100653.56;5077859;27;45493;-64
2022/06/27 05:24:16;;;;;;;;;3.25;3.25;;;;;18.96;57.82;100648.75;5092636;27;48701;-65
2022/06/27 05:26:41;;;;;;;;;6.00;4.00;;;;;19.00;57.67;100641.38;5077537;27;45472;-65
2022/06/27 05:29:07;;;;;;;;;4.00;4.00;;;;;19.05;57.68;100641.88;5057402;28;45277;-64
2022/06/27 05:31:32;;;;;;;;;6.50;6.50;;;;;19.15;57.45;100630.56;5090728;27;45227;-63
2022/06/27 05:33:58;;;;;;;;;5.75;5.75;;;;;19.26;57.28;100654.59;5076793;27;45452;-64
2022/06/27 05:36:23;;;;;;;;;7.50;6.00;;;;;19.38;56.76;100664.31;5077378;28;45273;-65
2022/06/27 05:38:49;;;;;;;;;5.50;4.00;;;;;19.55;57.08;100664.84;5077294;28;45353;-65
2022/06/27 05:41:14;;;;;;;;;6.00;6.00;;;;;19.71;56.93;100640.50;5077659;28;45255;-64
2022/06/27 05:43:40;;;;;;;;;5.00;5.00;;;;;19.89;56.15;100662.22;5076619;27;45376;-68
2022/06/27 05:46:06;;;;;;;;;5.25;5.00;;;;;19.95;55.85;100674.28;5077077;27;45324;-65
2022/06/27 05:48:32;;;;;;;;;8.25;8.25;;;;;19.91;55.68;100676.31;5077012;27;45486;-66
2022/06/27 05:50:59;;;;;;;;;7.00;5.75;;;;;19.83;55.92;100665.38;5077873;27;45258;-65
2022/06/27 05:53:25;;;;;;;;;8.25;6.00;;;;;19.76;55.90;100669.47;5076969;28;45422;-66
2022/06/27 05:55:50;;;;;;;;;7.25;5.75;;;;;19.59;55.92;100660.97;5074934;28;46171;-65
2022/06/27 05:58:18;;;;;;;;;5.25;5.25;;;;;19.65;56.10;100692.50;5076788;27;45336;-64
2022/06/27 06:00:44;;;;;;;;;7.75;6.00;;;;;19.65;56.17;100702.34;5092873;27;45602;-65
2022/06/27 06:03:09;;;;;;;;;6.25;6.25;;;;;19.56;56.04;100694.06;5075830;27;46106;-65
2022/06/27 06:05:35;;;;;;;;;6.50;6.50;;;;;19.56;55.78;100690.56;5076244;27;45629;-64
2022/06/27 06:08:04;;;;;;;;;6.50;6.50;;;;;19.54;56.41;100690.66;5076451;27;45399;-65
2022/06/27 06:10:33;;;;;;;;;5.75;5.00;;;;;19.64;56.40;100706.81;5077556;27;45529;-65
2022/06/27 06:13:01;;;;;;;;;3.75;3.75;;;;;19.67;56.20;100711.09;5076644;27;46613;-66
2022/06/27 06:15:27;;;;;;;;;8.50;5.00;;;;;19.66;55.92;100699.56;5070411;28;45409;-65
2022/06/27 06:17:54;;;;;;;;;7.00;7.00;;;;;19.68;56.08;100694.09;5075811;28;45485;-65
2022/06/27 06:20:20;;;;;;;;;9.50;6.00;;;;;19.66;56.11;100704.88;5076630;27;45449;-65
2022/06/27 06:22:45;;;;;;;;;6.00;5.00;;;;;19.54;55.98;100660.47;5076867;27;45587;-64
2022/06/27 06:25:11;;;;;;;;;6.00;5.00;;;;;19.67;56.13;100677.22;5076085;27;45515;-66
2022/06/27 06:27:40;;;;;;;;;4.75;4.00;;;;;19.69;55.97;100685.97;5076391;27;45491;-66
2022/06/27 06:30:07;;;;;;;;;3.00;3.00;;;;;19.71;55.59;100705.38;5077066;27;45402;-66
2022/06/27 06:32:34;;;;;;;;;3.75;3.75;;;;;19.76;55.36;100725.53;5076763;27;46414;-66
2022/06/27 06:35:00;;;;;;;;;4.50;4.50;;;;;19.78;54.93;100729.78;5075735;27;45415;-65
2022/06/27 06:37:27;;;;;;;;;4.00;4.00;;;;;19.83;54.61;100724.94;5076726;27;45415;-63
2022/06/27 06:39:53;;;;;;;;;5.00;3.25;;;;;19.75;55.17;100731.84;5077027;27;45460;-62
2022/06/27 06:42:18;;;;;;;;;4.75;4.75;;;;;19.69;54.79;100742.00;5075733;27;45447;-64
2022/06/27 06:44:43;;;;;;;;;6.00;6.00;;;;;19.68;55.51;100734.97;5097184;27;45247;-66
2022/06/27 06:47:09;;;;;;;;;6.75;6.25;;;;;19.76;54.98;100725.53;5076630;27;45431;-66
2022/06/27 06:49:35;;;;;;;;;7.00;7.00;;;;;19.85;55.74;100719.47;5095867;27;45274;-65
2022/06/27 06:52:01;;;;;;;;;4.75;4.75;;;;;20.05;55.22;100727.78;5096180;27;45567;-64
2022/06/27 06:54:31;;;;;;;;;22.25;22.25;;;;;20.20;55.16;100747.97;5076435;28;45352;-69
2022/06/27 06:56:57;;;;;;;;;2.25;2.25;;;;;20.27;54.21;100751.00;5076404;27;45356;-64
2022/06/27 06:59:22;;;;;;;;;4.25;3.50;;;;;20.27;54.37;100753.66;5076368;27;45273;-65
2022/06/27 07:01:49;;;;;;;;;6.50;5.25;;;;;20.22;54.41;100754.03;5075800;27;46167;-65
2022/06/27 07:04:16;;;;;;;;;4.25;4.25;;;;;20.19;54.37;100764.97;5076438;27;45330;-65
2022/06/27 07:06:42;;;;;;;;;5.75;4.50;;;;;20.16;54.74;100783.03;5074849;28;45334;-64
2022/06/27 07:09:08;;;;;;;;;5.00;4.00;;;;;20.06;54.32;100778.41;5077527;27;45551;-64
2022/06/27 07:11:37;;;;;;;;;5.75;4.00;;;;;20.07;54.96;100792.59;5084875;27;46403;-66
2022/06/27 07:14:03;;;;;;;;;4.75;4.75;;;;;20.01;54.56;100796.59;5074394;27;45373;-62
2022/06/27 07:16:29;;;;;;;;;5.00;4.25;;;;;19.96;54.66;100804.13;5083068;27;45278;-62
2022/06/27 07:18:55;;;;;;;;;6.25;6.25;;;;;19.98;55.00;100804.84;5096709;27;45603;-62
2022/06/27 07:21:21;;;;;;;;;6.25;4.50;;;;;20.05;54.20;100807.88;5081748;27;46052;-68
2022/06/27 07:23:48;;;;;;;;;3.00;3.00;;;;;20.16;54.45;100805.25;5073802;27;45573;-62
2022/06/27 07:26:16;;;;;;;;;4.00;3.00;;;;;20.25;54.49;100815.22;5090604;27;45436;-64
2022/06/27 07:28:42;;;;;;;;;3.75;2.75;;;;;20.33;53.90;100817.28;5074900;27;45522;-63
2022/06/27 07:31:12;;;;;;;;;5.00;3.75;;;;;20.34;53.65;100812.81;5073753;27;46224;-61
2022/06/27 07:33:51;;;;;;;;;6.00;4.00;;;;;20.31;53.34;100810.38;5074695;27;45444;-63
2022/06/27 07:36:18;;;;;;;;;6.50;3.50;;;;;20.38;52.78;100812.44;5075719;28;45449;-63
2022/06/27 07:38:49;;;;;;;;;4.50;2.75;;;;;20.50;52.82;100807.97;5091134;27;45741;-63
2022/06/27 07:41:16;;;;;;;;;4.00;4.00;;;;;20.58;52.68;100810.00;5075392;27;46070;-63
2022/06/27 07:43:46;;;;;;;;;5.25;4.50;;;;;20.63;52.00;100809.66;5074408;28;45410;-64
2022/06/27 07:46:12;;;;;;;;;3.75;3.75;;;;;20.67;52.40;100817.28;5075752;27;45359;-65
2022/06/27 07:48:38;;;;;;;;;6.25;3.50;;;;;20.67;51.66;100817.28;5076268;28;45507;-63
2022/06/27 07:51:04;;;;;;;;;3.00;3.00;;;;;20.74;51.36;100812.31;5075641;27;47351;-63
2022/06/27 07:53:30;;;;;;;;;5.00;5.00;;;;;20.79;51.90;100817.34;5075405;27;45329;-64
2022/06/27 07:55:58;;;;;;;;;3.00;3.00;;;;;20.95;51.40;100823.16;5075819;27;45378;-62
2022/06/27 07:58:33;;;;;;;;;2.00;2.00;;;;;21.05;51.03;100825.94;5075860;27;45296;-65
2022/06/27 08:01:05;;;;;;;;;2.00;2.00;;;;;21.03;50.73;100822.53;5075365;28;46289;-62
2022/06/27 08:03:36;;;;;;;;;2.00;2.00;;;;;20.94;50.76;100823.28;5073798;28;45461;-64
2022/06/27 08:06:07;;;;;;;;;3.50;2.75;;;;;20.90;50.98;100824.50;5075278;27;45316;-62
2022/06/27 08:08:33;;;;;;;;;3.50;2.00;;;;;20.85;50.54;100830.22;5075178;27;45270;-63
2022/06/27 08:11:00;;;;;;;;;3.75;3.00;;;;;20.70;50.25;100837.59;5075060;27;45480;-62
2022/06/27 08:13:28;;;;;;;;;1.00;1.00;;;;;20.55;50.43;100831.63;5074094;28;45420;-65
2022/06/27 08:15:55;;;;;;;;;3.50;3.50;;;;;20.48;50.75;100830.41;5075239;27;45339;-62
2022/06/27 08:18:20;;;;;;;;;0.00;0.00;;;;;20.52;51.33;100839.88;5075622;27;45513;-62
2022/06/27 08:20:46;;;;;;;;;2.00;2.00;;;;;20.73;51.16;100840.03;5074870;27;46361;-63
2022/06/27 08:23:13;;;;;;;;;3.00;1.75;;;;;20.99;50.99;100839.78;5073558;28;45417;-62
2022/06/27 08:25:39;;;;;;;;;3.75;3.75;;;;;21.22;50.14;100837.94;5075722;27;45374;-62
2022/06/27 08:28:05;;;;;;;;;2.00;2.00;;;;;21.22;49.56;100850.50;5075351;27;45242;-64
2022/06/27 08:30:30;;;;;;;;;2.25;2.25;;;;;21.11;49.07;100851.34;5075197;27;46310;-63
2022/06/27 08:32:58;;;;;;;;;1.25;1.25;;;;;20.85;49.03;100864.97;5074982;27;45173;-62
2022/06/27 08:35:23;;;;;;;;;2.75;2.75;;;;;20.52;49.64;100870.16;5073886;28;45432;-63
2022/06/27 08:37:54;;;;;;;;;2.00;2.00;;;;;20.27;50.16;100856.03;5073746;28;45517;-63
2022/06/27 08:40:22;;;;;;;;;2.50;2.50;;;;;20.18;50.77;100847.84;5076080;27;46137;-62
2022/06/27 08:42:48;;;;;;;;;5.25;3.00;;;;;20.22;51.51;100858.19;5078710;27;45349;-65
2022/06/27 08:45:15;;;;;;;;;3.50;3.00;;;;;20.28;51.07;100871.09;5078791;28;45291;-64
2022/06/27 08:47:41;;;;;;;;;3.50;3.50;;;;;20.38;51.20;100868.53;5095384;27;45439;-64
2022/06/27 08:50:11;;;;;;;;;6.75;4.50;;;;;20.54;51.30;100875.34;5079069;28;47062;-62
2022/06/27 08:52:41;;;;;;;;;4.50;3.25;;;;;20.55;51.48;100866.38;5078726;27;45246;-63
2022/06/27 08:55:10;;;;;;;;;4.00;2.50;;;;;20.51;51.54;100864.91;5079179;27;45300;-63
2022/06/27 08:57:36;;;;;;;;;3.75;3.25;;;;;20.51;51.37;100873.78;5078914;28;45615;-62
2022/06/27 09:00:07;;;;;;;;;3.00;3.00;;;;;20.57;50.85;100865.28;5078486;27;46348;-60
2022/06/27 09:02:42;;;;;;;;;2.00;0.25;;;;;20.77;49.76;100870.88;5078598;27;45219;-61
2022/06/27 09:05:29;;;;;;;;;4.25;2.75;;;;;21.07;49.50;100861.41;5078902;28;45808;-62
2022/06/27 09:07:56;;;;;;;;;2.00;2.00;;;;;21.39;48.52;100852.63;5078048;28;45407;-63
2022/06/27 09:10:29;;;;;;;;;1.00;1.00;;;;;21.76;46.30;100848.78;5077372;27;46131;-60
2022/06/27 09:12:58;;;;;;;;;1.75;1.75;;;;;22.07;45.54;100869.41;5077614;27;45449;-61
2022/06/27 09:15:38;;;;;;;;;1.25;1.25;;;;;22.32;45.16;100850.31;5077888;27;45365;-60
2022/06/27 09:18:06;;;;;;;;;1.25;1.25;;;;;22.42;44.49;100847.66;5078057;27;45197;-61
2022/06/27 09:20:49;;;;;;;;;2.00;2.00;;;;;22.66;44.21;100859.94;5077646;27;47537;-62
2022/06/27 09:23:40;;;;;;;;;1.00;1.00;;;;;22.83;43.87;100855.78;5077797;27;45232;-63
2022/06/27 09:26:15;;;;;;;;;5.75;4.25;;;;;22.89;43.94;100857.91;5077929;27;45422;-61
2022/06/27 09:28:45;;;;;;;;;3.00;3.00;;;;;23.00;43.53;100862.34;5078173;27;45298;-63
2022/06/27 09:31:13;;;;;;;;;2.00;2.00;;;;;22.98;42.74;100860.78;5076363;28;47113;-65
2022/06/27 09:33:42;;;;;;;;;2.50;1.00;;;;;22.82;42.27;100862.13;5077656;27;45506;-61
2022/06/27 09:36:13;;;;;;;;;1.00;1.00;;;;;22.65;41.92;100863.59;5093154;27;45353;-62
2022/06/27 09:38:43;;;;;;;;;4.50;3.00;;;;;22.55;42.09;100866.25;5078086;27;45305;-63
2022/06/27 09:41:11;;;;;;;;;1.00;1.00;;;;;22.45;42.27;100862.66;5077270;27;45362;-63
2022/06/27 09:43:40;;;;;;;;;3.00;1.25;;;;;22.35;42.27;100856.38;5077243;27;45353;-62
2022/06/27 09:46:08;;;;;;;;;0.25;0.25;;;;;22.25;41.27;100856.31;5077176;27;45271;-61
2022/06/27 09:48:35;;;;;;;;;0.50;0.50;;;;;22.19;40.78;100865.69;5077667;27;45203;-62
2022/06/27 09:51:02;;;;;;;;;2.25;2.25;;;;;22.13;41.31;100871.56;5076762;28;46386;-66
2022/06/27 09:53:28;;;;;;;;;2.50;2.50;;;;;22.15;42.04;100866.94;5076058;27;45346;-65
2022/06/27 09:55:54;;;;;;;;;2.00;2.00;;;;;22.18;42.06;100867.53;5075822;28;45362;-63
2022/06/27 09:58:20;;;;;;;;;1.00;1.00;;;;;22.20;42.55;100866.56;5077335;27;45342;-62
2022/06/27 10:00:47;;;;;;;;;2.25;1.00;;;;;22.15;42.41;100859.78;5077403;27;45377;-62
2022/06/27 10:03:13;;;;;;;;;1.75;1.75;;;;;22.11;41.92;100857.47;5078044;27;45331;-61
2022/06/27 10:05:40;;;;;;;;;3.50;2.25;;;;;22.08;42.10;100865.75;5076093;28;45184;-61
2022/06/27 10:08:05;;;;;;;;;0.25;0.25;;;;;22.07;41.18;100859.56;5077374;27;45224;-63
2022/06/27 10:11:08;;;;;;;;;6.75;4.50;;;;;22.09;41.24;100867.47;5076799;27;45723;-64
2022/06/27 10:13:39;;;;;;;;;2.25;2.25;;;;;22.15;41.69;100861.59;5077276;27;45273;-64
2022/06/27 10:16:15;;;;;;;;;3.75;3.50;;;;;22.27;41.67;100868.59;5077063;28;45342;-64
2022/06/27 10:18:56;;;;;;;;;5.75;3.50;;;;;22.43;40.50;100861.91;5077037;28;45563;-63
2022/06/27 10:21:31;;;;;;;;;2.50;2.50;;;;;22.58;40.62;100868.66;5076890;27;45719;-64
2022/06/27 10:24:16;;;;;;;;;2.00;2.00;;;;;22.66;39.93;100876.03;5076911;27;45365;-64
2022/06/27 10:26:42;;;;;;;;;3.50;2.00;;;;;22.73;40.49;100882.53;5068249;28;45406;-64
2022/06/27 10:29:44;;;;;;;;;1.00;1.00;;;;;22.75;40.80;100875.22;5076995;27;45544;-63
2022/06/27 10:32:40;;;;;;;;;2.50;2.00;;;;;22.85;40.62;100877.94;5075139;28;47132;-63
2022/06/27 10:35:09;;;;;;;;;5.00;5.00;;;;;22.86;40.36;100878.81;5076478;27;45292;-63
2022/06/27 10:37:36;;;;;;;;;1.00;1.00;;;;;22.85;39.91;100877.94;5075172;27;45318;-61
2022/06/27 10:40:20;;;;;;;;;1.25;0.75;;;;;22.89;39.85;100873.19;5076694;28;45461;-63
2022/06/27 10:42:55;;;;;;;;;1.00;1.00;;;;;22.87;40.37;100875.97;5076746;28;45334;-62
2022/06/27 10:45:20;;;;;;;;;2.50;2.00;;;;;22.73;39.95;100877.19;5076344;27;45324;-62
2022/06/27 10:47:47;;;;;;;;;3.75;2.00;;;;;22.72;40.28;100880.00;5075450;27;45239;-63
2022/06/27 10:50:15;;;;;;;;;5.50;3.75;;;;;22.77;40.61;100878.59;5076724;28;45548;-62
2022/06/27 10:52:40;;;;;;;;;2.00;2.00;;;;;23.04;40.26;100884.38;5076211;27;47079;-61
2022/06/27 10:55:22;;;;;;;;;2.50;2.00;;;;;23.12;39.97;100875.66;5074869;28;45601;-63
2022/06/27 10:57:49;;;;;;;;;1.00;1.00;;;;;23.28;39.83;100884.06;5076715;27;45294;-64
2022/06/27 11:00:41;;;;;;;;;1.00;1.00;;;;;23.28;39.81;100877.81;5076896;27;45411;-61
2022/06/27 11:03:18;;;;;;;;;2.50;2.50;;;;;23.27;39.72;100884.19;5074336;27;45420;-62
2022/06/27 11:05:52;;;;;;;;;2.25;2.25;;;;;23.27;40.34;100887.72;5075973;27;45235;-61
2022/06/27 11:08:19;;;;;;;;;4.75;4.75;;;;;23.36;39.54;100882.53;5076284;27;45422;-60
2022/06/27 11:10:45;;;;;;;;;2.00;2.00;;;;;23.25;39.64;100878.09;5076536;27;45621;-62
2022/06/27 11:13:11;;;;;;;;;3.00;0.25;;;;;23.30;39.07;100865.13;5075289;28;46622;-61
2022/06/27 11:15:36;;;;;;;;;2.00;2.00;;;;;23.38;39.68;100889.47;5075787;27;45305;-63
2022/06/27 11:18:08;;;;;;;;;3.25;3.25;;;;;23.57;39.00;100879.75;5076361;27;45267;-64
2022/06/27 11:20:34;;;;;;;;;2.50;2.00;;;;;23.72;38.53;100861.34;5075149;28;45359;-64
2022/06/27 11:23:01;;;;;;;;;4.00;2.25;;;;;23.96;38.77;100869.00;5074622;28;48042;-64
2022/06/27 11:25:29;;;;;;;;;2.00;2.00;;;;;24.12;37.34;100873.84;5075775;27;45323;-63
2022/06/27 11:33:33;;;;;;;;;4.00;4.00;;;;;24.63;37.03;100871.72;5075428;28;45183;-62
2022/06/27 11:35:59;;;;;;;;;3.25;2.25;;;;;24.78;36.58;100869.41;5075422;28;45271;-62